Time;durP1;ratioP1;P1;durP2;ratioP2;P2;SDS_P1;SDS_P2;PMS_P1;PMS_P2;Temp;Humidity;BMP_temperature;BMP_pressure;BME280_temperature;BME280_humidity;BME280_pressure;Samples;Min_cycle;Max_cycle;Signal;HPM_P1;HPM_P2
2023/02/24 00:01:23;;;;;;;3.80;3.42;;;;;;;;;;5032981;28;20057;-87
2023/02/24 00:03:50;;;;;;;6.93;6.38;;;;;;;;;;5032951;28;20068;-88
2023/02/24 00:06:17;;;;;;;8.30;7.80;;;;;;;;;;5032583;28;20045;-87
2023/02/24 00:08:43;;;;;;;7.63;7.15;;;;;;;;;;5032772;28;20403;-87
2023/02/24 00:11:12;;;;;;;5.32;4.93;;;;;;;;;;5028373;28;20045;-87
2023/02/24 00:13:39;;;;;;;6.20;5.63;;;;;;;;;;5012675;28;20054;-88
2023/02/24 00:16:06;;;;;;;4.43;4.13;;;;;;;;;;5012890;28;20042;-87
2023/02/24 00:18:34;;;;;;;5.50;5.10;;;;;;;;;;5012869;28;20038;-87
2023/02/24 00:21:07;;;;;;;4.78;4.47;;;;;;;;;;5012865;28;20050;-87
2023/02/24 00:23:34;;;;;;;5.13;4.80;;;;;;;;;;5012975;28;20052;-87
2023/02/24 00:26:01;;;;;;;6.20;5.60;;;;;;;;;;5013084;28;20435;-87
2023/02/24 00:28:29;;;;;;;4.80;4.50;;;;;;;;;;5012999;28;20050;-87
2023/02/24 00:30:56;;;;;;;7.35;5.80;;;;;;;;;;5013894;28;20053;-87
2023/02/24 00:33:23;;;;;;;5.80;5.43;;;;;;;;;;5032586;28;20045;-87
2023/02/24 00:35:50;;;;;;;7.45;6.93;;;;;;;;;;5032466;28;20111;-88
2023/02/24 00:38:16;;;;;;;7.35;6.63;;;;;;;;;;5012592;28;20054;-87
2023/02/24 00:40:44;;;;;;;5.97;5.47;;;;;;;;;;5012485;28;20050;-88
2023/02/24 00:43:11;;;;;;;8.50;7.25;;;;;;;;;;5031491;28;20042;-87
2023/02/24 00:45:39;;;;;;;5.28;4.88;;;;;;;;;;5032466;28;20049;-87
2023/02/24 00:48:09;;;;;;;5.70;5.28;;;;;;;;;;5032231;28;20049;-87
2023/02/24 00:50:37;;;;;;;6.93;6.43;;;;;;;;;;5032107;28;20049;-88
2023/02/24 00:53:04;;;;;;;5.13;4.20;;;;;;;;;;5031882;28;20108;-87
2023/02/24 00:55:35;;;;;;;7.30;6.80;;;;;;;;;;5032434;28;20119;-88
2023/02/24 00:58:02;;;;;;;5.90;5.55;;;;;;;;;;5019123;28;20108;-87
2023/02/24 01:00:34;;;;;;;7.78;7.18;;;;;;;;;;5016094;28;20089;-87
2023/02/24 01:03:02;;;;;;;7.95;7.45;;;;;;;;;;5017253;28;20073;-87
2023/02/24 01:05:29;;;;;;;7.82;7.40;;;;;;;;;;5016358;28;20057;-87
2023/02/24 01:07:56;;;;;;;6.13;5.80;;;;;;;;;;5016486;28;20061;-87
2023/02/24 01:10:25;;;;;;;3.45;3.33;;;;;;;;;;5016329;28;20048;-88
2023/02/24 01:12:52;;;;;;;3.55;3.30;;;;;;;;;;5030848;28;20041;-87
2023/02/24 01:15:21;;;;;;;5.80;5.35;;;;;;;;;;5035975;28;20072;-87
2023/02/24 01:17:47;;;;;;;5.78;5.32;;;;;;;;;;5022050;28;20053;-88
2023/02/24 01:20:17;;;;;;;3.92;3.70;;;;;;;;;;5015846;28;20581;-87
2023/02/24 01:22:44;;;;;;;5.47;5.03;;;;;;;;;;5015945;28;20459;-87
2023/02/24 01:25:11;;;;;;;5.75;5.45;;;;;;;;;;5015740;28;20108;-88
2023/02/24 01:27:38;;;;;;;4.22;4.00;;;;;;;;;;5015762;28;20064;-88
2023/02/24 01:30:07;;;;;;;5.07;4.38;;;;;;;;;;5015802;28;20500;-87
2023/02/24 01:32:34;;;;;;;4.95;4.43;;;;;;;;;;5015555;28;20474;-87
2023/02/24 01:35:01;;;;;;;6.50;5.20;;;;;;;;;;5015808;28;20045;-88
2023/02/24 01:37:29;;;;;;;5.50;5.10;;;;;;;;;;5025842;28;20049;-87
2023/02/24 01:39:56;;;;;;;6.20;5.68;;;;;;;;;;5035929;28;20526;-87
2023/02/24 01:42:22;;;;;;;7.47;6.97;;;;;;;;;;5035375;28;20057;-87
2023/02/24 01:45:11;;;;;;;3.88;3.58;;;;;;;;;;5035267;28;20049;-88
2023/02/24 01:47:38;;;;;;;7.35;6.75;;;;;;;;;;5024657;28;20054;-87
2023/02/24 01:50:05;;;;;;;6.10;5.63;;;;;;;;;;5015517;28;20130;-87
2023/02/24 01:52:36;;;;;;;2.92;2.75;;;;;;;;;;5015612;28;20137;-88
2023/02/24 01:55:06;;;;;;;6.13;5.72;;;;;;;;;;5015266;28;20148;-88
2023/02/24 01:57:33;;;;;;;4.10;3.83;;;;;;;;;;5015438;28;20054;-88
2023/02/24 02:00:10;;;;;;;10.35;5.35;;;;;;;;;;5015226;28;20159;-87
2023/02/24 02:02:37;;;;;;;;;;;;;;;;;;5015972;28;20081;-88
2023/02/24 02:05:04;;;;;;;6.47;4.55;;;;;;;;;;5015301;28;20112;-88
2023/02/24 02:07:32;;;;;;;6.43;5.43;;;;;;;;;;5014300;28;20504;-87
2023/02/24 02:10:02;;;;;;;4.85;4.43;;;;;;;;;;5015160;28;20471;-87
2023/02/24 02:12:31;;;;;;;4.80;4.40;;;;;;;;;;5015724;28;20049;-88
2023/02/24 02:14:59;;;;;;;5.25;4.88;;;;;;;;;;5015476;28;20096;-87
2023/02/24 02:17:30;;;;;;;5.20;4.50;;;;;;;;;;5020837;28;20050;-87
2023/02/24 02:20:14;;;;;;;5.90;5.55;;;;;;;;;;5024394;28;20109;-88
2023/02/24 02:22:59;;;;;;;5.25;4.85;;;;;;;;;;5021728;28;20053;-87
2023/02/24 02:25:34;;;;;;;5.25;4.95;;;;;;;;;;4986720;28;20554;-87
2023/02/24 02:28:18;;;;;;;5.50;5.07;;;;;;;;;;5015922;28;20168;-88
2023/02/24 02:30:55;;;;;;;4.43;4.03;;;;;;;;;;5014762;28;20591;-87
2023/02/24 02:33:41;;;;;;;5.88;5.50;;;;;;;;;;5014409;28;20041;-87
2023/02/24 02:36:13;;;;;;;6.20;5.80;;;;;;;;;;5014696;28;20057;-88
2023/02/24 02:38:43;;;;;;;7.78;7.32;;;;;;;;;;5014863;28;20073;-88
2023/02/24 02:41:13;;;;;;;5.65;4.50;;;;;;;;;;5015085;28;20054;-88
2023/02/24 02:43:45;;;;;;;4.93;4.47;;;;;;;;;;5015235;28;20046;-88
2023/02/24 02:46:14;;;;;;;5.90;5.40;;;;;;;;;;5014176;28;20049;-87
2023/02/24 02:48:46;;;;;;;3.80;3.28;;;;;;;;;;5014473;28;20053;-88
2023/02/24 02:51:16;;;;;;;4.65;4.28;;;;;;;;;;5014471;28;20448;-88
2023/02/24 02:53:48;;;;;;;6.13;4.63;;;;;;;;;;5014154;28;20426;-87
2023/02/24 02:56:17;;;;;;;6.10;5.47;;;;;;;;;;5013937;28;20050;-87
2023/02/24 02:58:47;;;;;;;7.20;6.60;;;;;;;;;;5014082;28;20045;-88
2023/02/24 03:01:17;;;;;;;6.05;5.63;;;;;;;;;;5013900;28;20086;-88
2023/02/24 03:03:45;;;;;;;4.55;4.18;;;;;;;;;;5029496;28;20053;-88
2023/02/24 03:06:15;;;;;;;6.40;5.80;;;;;;;;;;5034740;28;20057;-87
2023/02/24 03:08:48;;;;;;;7.55;6.85;;;;;;;;;;5034429;28;20095;-87
2023/02/24 03:11:16;;;;;;;5.72;5.18;;;;;;;;;;5033839;28;20049;-88
2023/02/24 03:13:45;;;;;;;5.10;4.72;;;;;;;;;;5019432;28;20054;-88
2023/02/24 03:16:12;;;;;;;8.93;6.03;;;;;;;;;;5016302;28;20081;-87
2023/02/24 03:18:43;;;;;;;5.80;5.30;;;;;;;;;;5019373;28;20053;-87
2023/02/24 03:21:13;;;;;;;5.88;5.32;;;;;;;;;;5017551;28;20136;-87
2023/02/24 03:23:44;;;;;;;7.95;6.35;;;;;;;;;;5013657;28;20097;-88
2023/02/24 03:26:17;;;;;;;5.93;5.43;;;;;;;;;;5013593;28;20054;-87
2023/02/24 03:28:48;;;;;;;5.28;4.95;;;;;;;;;;5013318;28;20058;-88
2023/02/24 03:31:18;;;;;;;4.00;3.78;;;;;;;;;;5013534;28;20046;-87
2023/02/24 03:33:46;;;;;;;5.70;5.30;;;;;;;;;;5013988;28;20433;-87
2023/02/24 03:36:13;;;;;;;3.78;3.55;;;;;;;;;;5013559;28;20573;-88
2023/02/24 03:38:41;;;;;;;6.15;5.85;;;;;;;;;;5014255;28;20049;-87
2023/02/24 03:41:10;;;;;;;7.07;6.68;;;;;;;;;;5017908;28;20054;-87
2023/02/24 03:43:39;;;;;;;6.82;6.43;;;;;;;;;;5016615;28;20128;-88
2023/02/24 03:46:06;;;;;;;6.72;6.22;;;;;;;;;;5012951;28;20104;-87
2023/02/24 03:48:33;;;;;;;10.50;8.35;;;;;;;;;;5013243;28;20457;-88
2023/02/24 03:50:59;;;;;;;9.63;8.30;;;;;;;;;;5013080;28;20049;-88
2023/02/24 03:53:31;;;;;;;6.75;5.18;;;;;;;;;;5013172;28;20173;-88
2023/02/24 03:56:02;;;;;;;6.28;5.80;;;;;;;;;;5013335;28;20072;-88
2023/02/24 03:58:32;;;;;;;6.03;5.50;;;;;;;;;;5013291;28;20496;-87
2023/02/24 04:01:05;;;;;;;5.93;5.57;;;;;;;;;;5013187;28;20131;-87
2023/02/24 04:03:34;;;;;;;6.57;6.00;;;;;;;;;;5013618;28;20056;-88
2023/02/24 04:06:07;;;;;;;7.07;6.63;;;;;;;;;;5013033;28;20057;-86
2023/02/24 04:08:37;;;;;;;5.43;4.78;;;;;;;;;;5023569;28;20102;-88
2023/02/24 04:11:05;;;;;;;;;;;;;;;;;;5033108;28;20049;-88
2023/02/24 04:13:34;;;;;;;4.65;4.25;;;;;;;;;;5032223;28;20023;-87
2023/02/24 04:16:07;;;;;;;2.70;2.50;;;;;;;;;;5032877;28;20053;-88
2023/02/24 04:18:33;;;;;;;6.22;5.65;;;;;;;;;;5032590;28;20137;-88
2023/02/24 04:21:02;;;;;;;6.55;6.15;;;;;;;;;;5032524;28;20046;-88
2023/02/24 04:23:31;;;;;;;5.32;4.88;;;;;;;;;;5023619;28;20053;-87
2023/02/24 04:25:58;;;;;;;4.95;4.55;;;;;;;;;;5013013;28;20066;-88
2023/02/24 04:28:25;;;;;;;6.85;6.15;;;;;;;;;;5012977;28;20050;-88
2023/02/24 04:30:54;;;;;;;15.60;6.43;;;;;;;;;;5014199;28;20050;-88
2023/02/24 04:33:22;;;;;;;6.10;5.75;;;;;;;;;;5017004;28;20052;-87
2023/02/24 04:35:50;;;;;;;6.78;6.38;;;;;;;;;;5016839;28;20075;-87
2023/02/24 04:38:16;;;;;;;3.35;3.15;;;;;;;;;;5023366;28;20067;-88
2023/02/24 04:40:43;;;;;;;4.45;4.07;;;;;;;;;;5036659;28;20462;-87
2023/02/24 04:43:09;;;;;;;4.95;4.55;;;;;;;;;;5036487;28;20045;-88
2023/02/24 04:45:38;;;;;;;6.18;5.00;;;;;;;;;;5036211;28;20049;-88
2023/02/24 04:48:11;;;;;;;4.68;4.38;;;;;;;;;;5036228;28;20050;-87
2023/02/24 04:50:40;;;;;;;7.22;6.05;;;;;;;;;;5036794;28;20084;-88
2023/02/24 04:53:08;;;;;;;6.47;6.03;;;;;;;;;;5032585;28;20127;-87
2023/02/24 04:55:38;;;;;;;5.47;5.03;;;;;;;;;;5016775;28;20069;-87
2023/02/24 04:58:05;;;;;;;6.78;4.32;;;;;;;;;;5016385;28;20096;-88
2023/02/24 05:00:34;;;;;;;5.68;4.68;;;;;;;;;;5016292;28;20054;-88
2023/02/24 05:03:01;;;;;;;5.97;5.53;;;;;;;;;;5016256;28;20137;-88
2023/02/24 05:05:28;;;;;;;6.40;6.00;;;;;;;;;;5016182;28;20054;-88
2023/02/24 05:08:01;;;;;;;8.40;7.63;;;;;;;;;;5016121;28;20141;-87
2023/02/24 05:10:28;;;;;;;6.88;6.25;;;;;;;;;;5016488;28;20062;-88
2023/02/24 05:12:56;;;;;;;5.03;4.70;;;;;;;;;;5018280;28;20492;-87
2023/02/24 05:15:29;;;;;;;4.38;3.83;;;;;;;;;;5035877;28;20421;-87
2023/02/24 05:17:57;;;;;;;7.18;6.53;;;;;;;;;;5035627;28;20077;-88
2023/02/24 05:23:10;;;;;;;7.93;4.55;;;;;;;;;;5035237;28;20518;-87
2023/02/24 05:25:37;;;;;;;6.55;6.10;;;;;;;;;;5035891;28;20077;-88
2023/02/24 05:28:04;;;;;;;5.82;4.57;;;;;;;;;;5033373;28;20482;-88
2023/02/24 05:30:31;;;;;;;6.03;5.53;;;;;;;;;;5015592;28;20049;-88
2023/02/24 05:32:57;;;;;;;6.50;6.03;;;;;;;;;;5015928;28;20057;-87
2023/02/24 05:35:24;;;;;;;5.20;4.70;;;;;;;;;;5015444;28;20108;-88
2023/02/24 05:37:51;;;;;;;11.02;8.82;;;;;;;;;;5015765;28;20052;-88
2023/02/24 05:40:22;;;;;;;5.15;4.72;;;;;;;;;;5015859;28;20058;-88
2023/02/24 05:42:50;;;;;;;5.90;5.10;;;;;;;;;;5015731;28;20050;-87
2023/02/24 05:45:18;;;;;;;7.85;6.60;;;;;;;;;;5015589;28;20050;-87
2023/02/24 05:47:46;;;;;;;5.82;5.32;;;;;;;;;;5015250;28;20054;-88
2023/02/24 05:50:13;;;;;;;5.35;3.95;;;;;;;;;;5015213;28;20462;-89
2023/02/24 05:52:39;;;;;;;5.00;4.65;;;;;;;;;;5015713;28;20076;-88
2023/02/24 05:55:12;;;;;;;6.68;6.13;;;;;;;;;;5015427;28;20058;-88
2023/02/24 05:57:40;;;;;;;6.30;5.78;;;;;;;;;;5015125;28;20137;-87
2023/02/24 06:00:13;;;;;;;5.45;5.10;;;;;;;;;;5032479;28;20053;-88
2023/02/24 06:02:48;;;;;;;6.93;6.55;;;;;;;;;;5035287;28;20049;-87
2023/02/24 06:05:24;;;;;;;6.20;5.80;;;;;;;;;;5016873;28;20073;-87
2023/02/24 06:07:51;;;;;;;4.60;4.30;;;;;;;;;;5015327;28;20052;-88
2023/02/24 06:10:20;;;;;;;4.05;3.78;;;;;;;;;;5033333;28;20045;-88
2023/02/24 06:12:49;;;;;;;10.07;6.95;;;;;;;;;;5034758;28;20049;-88
2023/02/24 06:15:16;;;;;;;6.55;4.55;;;;;;;;;;5034298;28;20104;-88
2023/02/24 06:17:43;;;;;;;5.60;5.22;;;;;;;;;;5034736;28;20058;-88
2023/02/24 06:20:14;;;;;;;7.80;7.15;;;;;;;;;;5034395;28;20063;-87
2023/02/24 06:22:42;;;;;;;6.05;5.30;;;;;;;;;;5034964;28;20399;-87
2023/02/24 06:25:10;;;;;;;7.00;6.35;;;;;;;;;;5034277;28;20045;-87
2023/02/24 06:27:37;;;;;;;4.68;4.35;;;;;;;;;;5034835;28;20049;-87
2023/02/24 06:30:09;;;;;;;7.22;6.60;;;;;;;;;;5034358;28;20069;-87
2023/02/24 06:32:35;;;;;;;4.78;4.47;;;;;;;;;;5034694;28;20465;-87
2023/02/24 06:35:02;;;;;;;6.75;6.18;;;;;;;;;;5034571;28;20321;-86
2023/02/24 06:37:29;;;;;;;9.20;8.30;;;;;;;;;;5034315;28;20045;-87
2023/02/24 06:39:57;;;;;;;6.30;5.78;;;;;;;;;;5034028;28;20080;-87
2023/02/24 06:42:23;;;;;;;7.15;6.45;;;;;;;;;;5034135;28;20458;-87
2023/02/24 06:44:50;;;;;;;7.80;7.13;;;;;;;;;;5033867;28;20495;-86
2023/02/24 06:47:18;;;;;;;6.35;5.95;;;;;;;;;;5034281;28;20050;-87
2023/02/24 06:49:45;;;;;;;8.48;5.18;;;;;;;;;;5022153;28;20050;-87
2023/02/24 06:52:17;;;;;;;7.80;7.10;;;;;;;;;;5014266;28;20049;-87
2023/02/24 06:54:46;;;;;;;12.38;7.05;;;;;;;;;;5013382;28;20054;-87
2023/02/24 06:57:12;;;;;;;7.88;7.03;;;;;;;;;;5014552;28;20064;-87
2023/02/24 06:59:40;;;;;;;5.65;5.15;;;;;;;;;;5014327;28;20565;-87
2023/02/24 07:02:06;;;;;;;5.00;4.60;;;;;;;;;;5014258;28;20096;-87
2023/02/24 07:04:42;;;;;;;8.43;7.72;;;;;;;;;;5014331;28;20061;-87
2023/02/24 07:07:09;;;;;;;8.38;7.65;;;;;;;;;;5014001;28;20054;-87
2023/02/24 07:09:35;;;;;;;7.40;6.90;;;;;;;;;;5013915;28;20060;-87
2023/02/24 07:12:03;;;;;;;8.02;6.78;;;;;;;;;;5014407;28;20100;-87
2023/02/24 07:14:30;;;;;;;5.50;5.03;;;;;;;;;;5013976;28;20129;-87
2023/02/24 07:16:57;;;;;;;5.10;4.68;;;;;;;;;;5013941;28;20093;-87
2023/02/24 07:19:24;;;;;;;9.43;6.82;;;;;;;;;;5014282;28;20049;-88
2023/02/24 07:21:58;;;;;;;6.28;5.70;;;;;;;;;;5013805;28;20049;-87
2023/02/24 07:24:31;;;;;;;5.85;5.28;;;;;;;;;;5013942;28;20042;-88
2023/02/24 07:26:59;;;;;;;7.43;6.00;;;;;;;;;;5013941;28;20061;-87
2023/02/24 07:29:26;;;;;;;5.25;4.57;;;;;;;;;;5013923;28;20403;-88
2023/02/24 07:31:55;;;;;;;7.95;7.22;;;;;;;;;;5013642;28;20061;-87
2023/02/24 07:34:23;;;;;;;9.77;5.95;;;;;;;;;;5019300;28;20454;-87
2023/02/24 07:36:50;;;;;;;8.18;6.15;;;;;;;;;;5033294;28;20066;-87
2023/02/24 07:39:19;;;;;;;5.88;5.35;;;;;;;;;;5033368;28;20119;-87
2023/02/24 07:41:48;;;;;;;5.22;4.07;;;;;;;;;;5033030;28;20487;-88
2023/02/24 07:44:15;;;;;;;6.25;5.65;;;;;;;;;;5033114;28;20056;-87
2023/02/24 07:46:41;;;;;;;4.32;3.90;;;;;;;;;;5033038;28;20057;-87
2023/02/24 07:49:11;;;;;;;6.25;5.90;;;;;;;;;;5032222;28;20080;-87
2023/02/24 07:51:38;;;;;;;8.95;8.35;;;;;;;;;;5033007;28;20569;-88
2023/02/24 07:54:07;;;;;;;6.88;6.38;;;;;;;;;;5030272;28;20080;-88
2023/02/24 07:56:44;;;;;;;7.20;4.25;;;;;;;;;;5013180;28;20424;-87
2023/02/24 07:59:14;;;;;;;6.95;6.40;;;;;;;;;;5012924;28;20054;-87
2023/02/24 08:01:48;;;;;;;6.70;6.18;;;;;;;;;;5012844;28;20045;-88
2023/02/24 08:04:15;;;;;;;6.32;5.72;;;;;;;;;;5013103;28;20065;-87
2023/02/24 08:06:43;;;;;;;6.25;5.82;;;;;;;;;;5012327;28;20050;-87
2023/02/24 08:09:16;;;;;;;7.25;6.47;;;;;;;;;;5013045;28;20049;-88
2023/02/24 08:11:45;;;;;;;7.85;7.13;;;;;;;;;;5013318;28;20073;-87
2023/02/24 08:14:12;;;;;;;6.15;5.60;;;;;;;;;;5013083;28;20060;-87
2023/02/24 08:16:39;;;;;;;4.82;4.38;;;;;;;;;;5013080;28;20045;-87
2023/02/24 08:19:06;;;;;;;7.30;6.45;;;;;;;;;;5013035;28;20132;-87
2023/02/24 08:21:37;;;;;;;6.35;6.05;;;;;;;;;;5012866;28;20480;-86
2023/02/24 08:24:03;;;;;;;;;;;;;;;;;;5013191;28;20482;-87
2023/02/24 08:26:31;;;;;;;4.60;4.20;;;;;;;;;;5012809;28;19979;-86
2023/02/24 08:28:59;;;;;;;6.88;5.70;;;;;;;;;;5012716;28;20053;-87
2023/02/24 08:31:26;;;;;;;5.65;5.22;;;;;;;;;;5012659;28;20100;-87
2023/02/24 08:33:55;;;;;;;6.20;4.60;;;;;;;;;;5013214;28;20472;-87
2023/02/24 08:36:24;;;;;;;6.75;6.13;;;;;;;;;;5031284;28;20550;-87
2023/02/24 08:38:52;;;;;;;5.70;5.05;;;;;;;;;;5032871;28;20072;-87
2023/02/24 08:41:27;;;;;;;8.35;5.97;;;;;;;;;;5014222;28;20046;-87
2023/02/24 08:43:54;;;;;;;8.27;6.85;;;;;;;;;;5012716;28;20049;-87
2023/02/24 08:46:24;;;;;;;7.93;7.15;;;;;;;;;;5030650;28;20507;-87
2023/02/24 08:48:54;;;;;;;5.93;5.25;;;;;;;;;;5032247;28;20072;-88
2023/02/24 08:51:22;;;;;;;5.57;4.95;;;;;;;;;;5031692;28;20049;-87
2023/02/24 08:53:51;;;;;;;6.50;6.10;;;;;;;;;;5031788;28;20083;-87
2023/02/24 08:56:22;;;;;;;6.57;5.90;;;;;;;;;;5032120;28;20053;-87
2023/02/24 08:58:52;;;;;;;8.15;7.55;;;;;;;;;;5032776;28;20046;-87
2023/02/24 09:01:22;;;;;;;5.82;4.05;;;;;;;;;;5032215;28;20476;-87
2023/02/24 09:03:51;;;;;;;5.90;5.50;;;;;;;;;;5032367;28;20115;-87
2023/02/24 09:06:24;;;;;;;5.32;4.93;;;;;;;;;;5015707;28;20057;-87
2023/02/24 09:09:15;;;;;;;7.13;6.50;;;;;;;;;;5012572;28;20045;-87
2023/02/24 09:11:42;;;;;;;9.20;8.18;;;;;;;;;;5012029;28;20058;-87
2023/02/24 09:14:15;;;;;;;4.53;4.18;;;;;;;;;;5012340;28;20502;-87
2023/02/24 09:17:00;;;;;;;5.75;5.00;;;;;;;;;;5032535;28;20472;-87
2023/02/24 09:22:28;;;;;;;5.53;5.13;;;;;;;;;;5003877;28;20060;-87
2023/02/24 09:25:16;;;;;;;6.38;5.85;;;;;;;;;;5015682;28;20052;-87
2023/02/24 09:27:42;;;;;;;5.43;5.03;;;;;;;;;;5015821;28;20060;-87
2023/02/24 09:30:24;;;;;;;4.78;4.38;;;;;;;;;;5015913;28;20050;-87
2023/02/24 09:32:59;;;;;;;4.28;3.92;;;;;;;;;;5015783;28;20408;-87
2023/02/24 09:35:29;;;;;;;6.90;5.15;;;;;;;;;;5015516;28;20050;-87
2023/02/24 09:37:56;;;;;;;4.57;4.18;;;;;;;;;;5015701;28;20065;-87
2023/02/24 09:40:38;;;;;;;4.68;3.88;;;;;;;;;;5015613;28;20432;-87
2023/02/24 09:43:09;;;;;;;6.20;5.78;;;;;;;;;;5015855;28;20056;-87
2023/02/24 09:45:38;;;;;;;7.45;6.80;;;;;;;;;;5015550;28;20053;-88
2023/02/24 09:48:10;;;;;;;6.43;5.82;;;;;;;;;;5015466;28;20046;-87
2023/02/24 09:50:59;;;;;;;5.07;4.78;;;;;;;;;;5015381;28;20120;-88
2023/02/24 09:53:28;;;;;;;;;;;;;;;;;;5015860;28;20523;-87
2023/02/24 09:56:02;;;;;;;4.75;4.45;;;;;;;;;;5015340;28;20342;-88
2023/02/24 09:58:36;;;;;;;6.80;6.32;;;;;;;;;;5015355;28;20565;-87
2023/02/24 10:01:19;;;;;;;4.85;4.38;;;;;;;;;;5015378;28;20088;-88
2023/02/24 10:03:50;;;;;;;6.43;4.35;;;;;;;;;;5015351;28;20049;-87
2023/02/24 10:06:20;;;;;;;5.75;5.35;;;;;;;;;;5015336;28;20132;-87
2023/02/24 10:08:50;;;;;;;5.20;4.78;;;;;;;;;;5015157;28;20112;-88
2023/02/24 10:11:31;;;;;;;6.38;5.85;;;;;;;;;;5014920;28;20466;-88
2023/02/24 10:13:58;;;;;;;7.22;6.72;;;;;;;;;;5015410;28;20135;-88
2023/02/24 10:16:25;;;;;;;6.25;5.65;;;;;;;;;;5015486;28;20706;-88
2023/02/24 10:18:59;;;;;;;6.25;5.75;;;;;;;;;;5015296;28;20053;-89
2023/02/24 10:21:33;;;;;;;5.10;4.72;;;;;;;;;;5015039;28;20077;-88
2023/02/24 10:24:04;;;;;;;7.63;7.03;;;;;;;;;;5015068;28;20049;-88
2023/02/24 10:26:30;;;;;;;;;;;;;;;;;;5015113;28;20089;-88
2023/02/24 10:29:07;;;;;;;6.90;6.20;;;;;;;;;;5014287;28;19921;-88
2023/02/24 10:31:34;;;;;;;;;;;;;;;;;;5015564;28;20148;-88
2023/02/24 10:34:04;;;;;;;6.50;5.53;;;;;;;;;;5016686;28;19928;-88
2023/02/24 10:36:35;;;;;;;;;;;;;;;;;;5023965;28;20049;-88
2023/02/24 10:39:09;;;;;;;5.95;5.45;;;;;;;;;;5024336;28;19993;-87
2023/02/24 10:41:44;;;;;;;6.38;5.88;;;;;;;;;;5023746;28;20050;-88
2023/02/24 10:44:11;;;;;;;9.02;8.32;;;;;;;;;;5023436;28;20046;-88
2023/02/24 10:46:37;;;;;;;6.00;5.47;;;;;;;;;;5018373;28;20141;-88
2023/02/24 10:49:08;;;;;;;6.15;5.75;;;;;;;;;;5014257;28;20054;-88
2023/02/24 10:51:37;;;;;;;6.38;5.50;;;;;;;;;;5014515;28;20054;-88
2023/02/24 10:54:33;;;;;;;7.60;6.82;;;;;;;;;;5014539;28;20454;-88
2023/02/24 10:57:14;;;;;;;5.05;4.72;;;;;;;;;;5014490;28;20048;-88
2023/02/24 10:59:57;;;;;;;6.20;5.75;;;;;;;;;;5014365;28;20053;-88
2023/02/24 11:02:31;;;;;;;6.47;5.97;;;;;;;;;;5014782;28;20057;-88
2023/02/24 11:05:23;;;;;;;5.43;4.97;;;;;;;;;;5014137;28;20060;-88
2023/02/24 11:07:54;;;;;;;7.38;6.93;;;;;;;;;;5013874;28;20080;-88
2023/02/24 11:10:31;;;;;;;7.32;6.72;;;;;;;;;;5013569;28;20060;-88
2023/02/24 11:18:28;;;;;;;5.55;5.03;;;;;;;;;;5013866;28;20530;-88
2023/02/24 11:20:57;;;;;;;7.55;6.95;;;;;;;;;;5013713;28;20053;-88
2023/02/24 11:23:26;;;;;;;7.18;6.65;;;;;;;;;;5013886;28;20104;-88
2023/02/24 11:25:58;;;;;;;7.75;7.03;;;;;;;;;;5013626;28;20157;-88
2023/02/24 11:28:30;;;;;;;6.57;5.97;;;;;;;;;;5013776;28;20056;-88
2023/02/24 11:31:03;;;;;;;6.88;6.43;;;;;;;;;;5019613;28;20092;-88
2023/02/24 11:33:38;;;;;;;8.30;7.80;;;;;;;;;;5033092;28;20053;-88
2023/02/24 11:36:08;;;;;;;6.22;5.63;;;;;;;;;;5026087;28;20060;-88
2023/02/24 11:38:39;;;;;;;6.13;5.60;;;;;;;;;;5013344;28;20571;-89
2023/02/24 11:41:14;;;;;;;8.27;7.65;;;;;;;;;;5019740;28;20045;-88
2023/02/24 11:43:43;;;;;;;8.63;7.93;;;;;;;;;;5033156;28;20422;-88
2023/02/24 11:46:12;;;;;;;12.77;12.05;;;;;;;;;;5033182;28;20046;-89
2023/02/24 11:48:40;;;;;;;6.90;6.40;;;;;;;;;;5033151;28;20457;-88
2023/02/24 11:51:10;;;;;;;10.15;9.63;;;;;;;;;;5032891;28;20115;-89
2023/02/24 11:53:40;;;;;;;9.23;8.70;;;;;;;;;;5033021;28;20049;-88
2023/02/24 11:56:06;;;;;;;;;;;;;;;;;;5033430;28;20131;-89
2023/02/24 11:58:39;;;;;;;9.15;8.52;;;;;;;;;;5033010;28;19924;-88
2023/02/24 12:01:09;;;;;;;6.03;5.53;;;;;;;;;;5032333;28;20041;-90
2023/02/24 12:03:37;;;;;;;7.30;6.85;;;;;;;;;;5032781;28;20045;-88
2023/02/24 12:06:08;;;;;;;6.20;5.80;;;;;;;;;;5032428;28;20050;-89
2023/02/24 12:08:37;;;;;;;8.85;8.30;;;;;;;;;;5032859;28;20053;-88
2023/02/24 12:11:06;;;;;;;9.07;8.55;;;;;;;;;;5032488;28;20038;-89
2023/02/24 12:13:38;;;;;;;6.88;6.45;;;;;;;;;;5032960;28;20053;-89
2023/02/24 12:16:10;;;;;;;9.80;9.05;;;;;;;;;;5028026;28;20046;-88
2023/02/24 12:18:39;;;;;;;11.93;10.77;;;;;;;;;;5012846;28;20076;-89
2023/02/24 12:21:07;;;;;;;9.52;8.80;;;;;;;;;;5013158;28;20129;-89
2023/02/24 12:23:36;;;;;;;10.40;9.55;;;;;;;;;;5012890;28;20060;-88
2023/02/24 12:26:12;;;;;;;6.70;6.22;;;;;;;;;;5013236;28;20068;-88
2023/02/24 12:28:50;;;;;;;6.10;5.60;;;;;;;;;;5013329;28;20195;-88
2023/02/24 12:31:24;;;;;;;7.78;7.35;;;;;;;;;;5012889;28;20053;-89
2023/02/24 12:33:55;;;;;;;7.53;7.10;;;;;;;;;;5013142;28;20049;-88
2023/02/24 12:36:27;;;;;;;6.88;6.47;;;;;;;;;;5012707;28;20112;-88
2023/02/24 12:38:59;;;;;;;7.72;7.10;;;;;;;;;;5012527;28;20050;-88
2023/02/24 12:41:32;;;;;;;8.70;8.18;;;;;;;;;;5018571;28;20045;-90
2023/02/24 12:44:05;;;;;;;6.75;6.25;;;;;;;;;;5032382;28;20119;-88
2023/02/24 12:46:35;;;;;;;7.28;6.78;;;;;;;;;;5032044;28;20053;-88
2023/02/24 12:49:10;;;;;;;11.40;10.60;;;;;;;;;;5032233;28;20075;-88
2023/02/24 12:51:42;;;;;;;6.75;6.25;;;;;;;;;;5026087;28;20058;-88
2023/02/24 12:54:11;;;;;;;8.10;7.60;;;;;;;;;;5016586;28;20053;-87
2023/02/24 12:56:41;;;;;;;6.72;6.28;;;;;;;;;;5016828;28;20143;-89
2023/02/24 12:59:10;;;;;;;7.28;6.78;;;;;;;;;;5016381;28;20141;-88
2023/02/24 13:01:43;;;;;;;7.13;6.63;;;;;;;;;;5016263;28;20104;-88
2023/02/24 13:04:24;;;;;;;9.23;8.55;;;;;;;;;;5016138;28;20060;-89
2023/02/24 13:06:55;;;;;;;8.45;8.02;;;;;;;;;;5016132;28;20100;-88
2023/02/24 13:09:24;;;;;;;5.88;5.57;;;;;;;;;;5016229;28;20115;-88
2023/02/24 13:11:54;;;;;;;4.07;3.78;;;;;;;;;;5016212;28;20054;-88
2023/02/24 13:14:24;;;;;;;3.25;3.05;;;;;;;;;;5016231;28;20050;-88
2023/02/24 13:17:02;;;;;;;6.78;6.38;;;;;;;;;;5016492;28;20054;-88
2023/02/24 13:19:30;;;;;;;7.85;6.85;;;;;;;;;;5015881;28;20484;-88
2023/02/24 13:21:58;;;;;;;7.20;6.13;;;;;;;;;;5016165;28;20111;-88
2023/02/24 13:24:26;;;;;;;6.32;5.75;;;;;;;;;;5015999;28;20467;-87
2023/02/24 13:27:03;;;;;;;8.90;8.40;;;;;;;;;;5022801;28;20060;-88
2023/02/24 13:29:30;;;;;;;7.75;7.15;;;;;;;;;;5036935;28;20054;-87
2023/02/24 13:31:58;;;;;;;7.05;6.53;;;;;;;;;;5035444;28;20065;-88
2023/02/24 13:34:30;;;;;;;7.78;7.18;;;;;;;;;;5035499;28;20107;-88
2023/02/24 13:36:57;;;;;;;7.78;7.28;;;;;;;;;;5035189;28;20484;-88
2023/02/24 13:39:25;;;;;;;8.77;8.18;;;;;;;;;;5035196;28;20049;-88
2023/02/24 13:42:02;;;;;;;8.45;7.82;;;;;;;;;;5029009;28;20050;-89
2023/02/24 13:44:30;;;;;;;10.82;10.10;;;;;;;;;;5015296;28;20058;-88
2023/02/24 13:47:16;;;;;;;6.00;5.68;;;;;;;;;;5015492;28;20046;-88
2023/02/24 13:49:47;;;;;;;5.95;5.63;;;;;;;;;;5015396;28;20049;-88
2023/02/24 13:52:19;;;;;;;7.45;6.85;;;;;;;;;;5015583;28;20061;-88
2023/02/24 13:55:07;;;;;;;9.48;8.77;;;;;;;;;;5015659;28;20111;-88
2023/02/24 13:57:54;;;;;;;8.10;7.47;;;;;;;;;;5026670;28;20046;-88
2023/02/24 14:00:26;;;;;;;7.07;6.57;;;;;;;;;;5030341;28;20107;-88
2023/02/24 14:02:54;;;;;;;9.80;8.88;;;;;;;;;;5034329;28;20469;-88
2023/02/24 14:05:23;;;;;;;6.82;6.22;;;;;;;;;;5034574;28;20454;-87
2023/02/24 14:07:52;;;;;;;8.40;7.85;;;;;;;;;;5034851;28;20107;-89
2023/02/24 14:10:19;;;;;;;6.88;6.25;;;;;;;;;;5034886;28;20064;-88
2023/02/24 14:12:47;;;;;;;9.82;8.93;;;;;;;;;;5034503;28;20050;-88
2023/02/24 14:15:16;;;;;;;7.32;6.63;;;;;;;;;;5034709;28;20050;-88
2023/02/24 14:17:43;;;;;;;6.70;6.20;;;;;;;;;;5034604;28;20123;-89
2023/02/24 14:20:20;;;;;;;9.82;9.07;;;;;;;;;;5034866;28;20053;-88
2023/02/24 14:22:47;;;;;;;7.60;6.88;;;;;;;;;;5023145;28;20461;-88
2023/02/24 14:25:14;;;;;;;7.15;6.65;;;;;;;;;;5014667;28;20054;-88
2023/02/24 14:27:42;;;;;;;10.25;9.65;;;;;;;;;;5025518;28;20136;-88
2023/02/24 14:30:21;;;;;;;8.50;7.90;;;;;;;;;;5034301;28;20045;-89
2023/02/24 14:32:48;;;;;;;7.93;7.38;;;;;;;;;;5034108;28;20049;-87
2023/02/24 14:35:20;;;;;;;7.10;6.50;;;;;;;;;;5034390;28;20458;-89
2023/02/24 14:37:46;;;;;;;10.27;9.45;;;;;;;;;;5034105;28;20265;-88
2023/02/24 14:40:14;;;;;;;7.32;6.72;;;;;;;;;;5034486;28;20392;-88
2023/02/24 14:42:46;;;;;;;11.07;8.23;;;;;;;;;;5034021;28;20100;-89
2023/02/24 14:45:16;;;;;;;8.50;8.02;;;;;;;;;;5033967;28;20057;-89
2023/02/24 14:47:43;;;;;;;12.30;8.55;;;;;;;;;;5034446;28;20107;-88
2023/02/24 14:50:15;;;;;;;7.65;7.22;;;;;;;;;;5034214;28;20056;-89
2023/02/24 14:52:44;;;;;;;9.40;8.82;;;;;;;;;;5034192;28;20050;-89
2023/02/24 14:55:14;;;;;;;6.25;5.60;;;;;;;;;;5034161;28;20466;-89
2023/02/24 14:57:43;;;;;;;7.68;7.18;;;;;;;;;;5034048;28;20047;-89
2023/02/24 15:00:16;;;;;;;7.07;6.38;;;;;;;;;;5034155;28;20042;-90
2023/02/24 15:02:46;;;;;;;6.07;5.35;;;;;;;;;;5033930;28;20426;-89
2023/02/24 15:05:12;;;;;;;7.35;6.55;;;;;;;;;;5034186;28;20326;-89
2023/02/24 15:07:39;;;;;;;8.43;7.63;;;;;;;;;;5033271;28;20065;-88
2023/02/24 15:10:17;;;;;;;7.90;7.40;;;;;;;;;;5033501;28;20144;-89
2023/02/24 15:12:45;;;;;;;7.28;6.85;;;;;;;;;;5033675;28;20502;-89
2023/02/24 15:15:18;;;;;;;7.85;7.22;;;;;;;;;;5033251;28;20107;-89